Time;durP1;ratioP1;P1;durP2;ratioP2;P2;SDS_P1;SDS_P2;PMS_P1;PMS_P2;Temp;Humidity;BMP_temperature;BMP_pressure;BME280_temperature;BME280_humidity;BME280_pressure;Samples;Min_cycle;Max_cycle;Signal;HPM_P1;HPM_P2
2021/04/16 00:04:20;;;;;;;;;;;;;;;5.26;69.38;100132.69;5170209;23;19947;-92
2021/04/16 00:06:47;;;;;;;;;;;;;;;5.21;69.54;100135.22;5032900;28;19940;-93
2021/04/16 00:09:12;;;;;;;;;;;;;;;5.24;69.57;100135.22;5013990;28;19924;-93
2021/04/16 00:11:38;;;;;;;;;;;;;;;4.95;69.79;100133.31;5051914;28;20273;-91
2021/04/16 00:14:04;;;;;;;;;;;;;;;4.84;70.21;100129.81;5049330;28;19931;-91
2021/04/16 00:16:29;;;;;;;;;;;;;;;4.74;71.22;100127.97;5041018;28;19925;-90
2021/04/16 00:18:55;;;;;;;;;;;;;;;4.84;71.78;100127.25;5025940;28;19996;-91
2021/04/16 00:21:21;;;;;;;;;;;;;;;4.97;71.82;100126.53;5021837;28;19921;-91
2021/04/16 00:23:47;;;;;;;;;;;;;;;4.86;71.71;100128.13;5030552;28;19983;-92
2021/04/16 00:26:12;;;;;;;;;;;;;;;4.57;73.18;100127.81;5023126;28;19932;-91
2021/04/16 00:28:38;;;;;;;;;;;;;;;4.78;73.45;100127.19;5052262;28;19905;-90
2021/04/16 00:31:07;;;;;;;;;;;;;;;4.91;73.64;100126.47;5013385;28;20023;-92
2021/04/16 00:33:33;;;;;;;;;;;;;;;4.80;73.47;100122.94;5042044;28;19992;-92
2021/04/16 00:36:01;;;;;;;;;;;;;;;4.81;74.06;100122.09;5042630;28;19929;-92
2021/04/16 00:38:26;;;;;;;;;;;;;;;4.83;74.10;100122.97;5065357;28;19921;-92
2021/04/16 00:40:54;;;;;;;;;;;;;;;4.86;74.07;100120.47;5049100;28;19924;-92
2021/04/16 00:43:20;;;;;;;;;;;;;;;4.58;73.96;100119.31;5022153;28;19928;-92
2021/04/16 00:45:45;;;;;;;;;;;;;;;4.77;74.70;100117.81;5063421;28;19921;-92
2021/04/16 00:48:23;;;;;;;;;;;;;;;5.01;74.59;100115.47;5012034;28;19928;-92
2021/04/16 00:50:50;;;;;;;;;;;;;;;5.00;74.96;100113.78;5028798;28;19944;-92
2021/04/16 00:53:15;;;;;;;;;;;;;;;4.98;74.85;100115.44;5050891;28;19945;-93
2021/04/16 00:55:41;;;;;;;;;;;;;;;5.10;74.94;100111.28;5047232;28;19918;-92
2021/04/16 00:58:07;;;;;;;;;;;;;;;4.86;74.98;100109.38;5011570;28;20005;-92
2021/04/16 01:00:37;;;;;;;;;;;;;;;4.77;76.13;100111.03;5027647;28;19901;-91
2021/04/16 01:03:03;;;;;;;;;;;;;;;4.54;77.13;100115.91;5011385;28;19921;-93
2021/04/16 01:05:28;;;;;;;;;;;;;;;4.52;77.61;100120.13;5074313;28;19956;-92
2021/04/16 01:07:53;;;;;;;;;;;;;;;4.64;77.62;100116.00;5058489;28;19928;-92
2021/04/16 01:10:20;;;;;;;;;;;;;;;4.79;78.04;100105.94;5026552;28;19941;-92
2021/04/16 01:12:45;;;;;;;;;;;;;;;4.91;77.18;100113.69;5033968;28;19917;-92
2021/04/16 01:15:29;;;;;;;;;;;;;;;5.10;77.49;100106.19;5022463;28;19956;-93
2021/04/16 01:17:55;;;;;;;;;;;;;;;5.03;77.69;100111.22;5029579;28;19921;-92
2021/04/16 01:20:31;;;;;;;;;;;;;;;4.91;77.01;100113.69;5007573;28;20459;-91
2021/04/16 01:23:15;;;;;;;;;;;;;;;4.78;77.63;100115.28;5291272;23;19920;-91
2021/04/16 01:25:42;;;;;;;;;;;;;;;4.86;77.30;100109.38;5083320;28;19931;-91
2021/04/16 01:28:07;;;;;;;;;;;;;;;4.08;79.71;100109.41;5064068;28;19916;-92
2021/04/16 01:30:33;;;;;;;;;;;;;;;4.30;80.70;100110.53;5053052;28;19928;-90
2021/04/16 01:32:59;;;;;;;;;;;;;;;4.27;81.55;100111.34;5059143;28;19916;-92
2021/04/16 01:35:27;;;;;;;;;;;;;;;4.40;81.27;100113.22;5050383;28;19927;-92
2021/04/16 01:37:53;;;;;;;;;;;;;;;4.65;81.13;100104.94;5057822;28;19962;-92
2021/04/16 01:40:18;;;;;;;;;;;;;;;4.26;80.39;100113.88;5064306;28;19921;-92
2021/04/16 01:42:44;;;;;;;;;;;;;;;4.50;81.50;100109.06;5056710;28;20015;-92
2021/04/16 01:45:17;;;;;;;;;;;;;;;4.35;81.35;100111.44;5069653;28;19921;-92
2021/04/16 01:47:43;;;;;;;;;;;;;;;4.53;81.95;100111.63;5067106;28;19917;-91
2021/04/16 01:50:09;;;;;;;;;;;;;;;4.61;81.12;100107.47;5065174;28;19960;-91
2021/04/16 01:52:34;;;;;;;;;;;;;;;4.72;80.70;100104.16;5065595;28;19924;-92
2021/04/16 01:55:00;;;;;;;;;;;;;;;4.78;80.46;100104.22;5052097;28;19931;-91
2021/04/16 01:57:28;;;;;;;;;;;;;;;4.91;80.69;100100.94;5045663;28;19921;-92
2021/04/16 01:59:54;;;;;;;;;;;;;;;4.75;80.48;100109.31;5061503;28;19935;-91
2021/04/16 02:02:22;;;;;;;;;;;;;;;4.75;80.46;100097.38;5048889;28;19952;-92
2021/04/16 02:04:48;;;;;;;;;;;;;;;4.83;80.49;100102.56;5056680;28;19908;-91
2021/04/16 02:07:14;;;;;;;;;;;;;;;4.77;80.80;100097.41;5058406;28;19917;-90
2021/04/16 02:09:40;;;;;;;;;;;;;;;4.51;80.49;100105.63;5064567;28;19910;-92
2021/04/16 02:12:06;;;;;;;;;;;;;;;4.65;81.21;100110.03;5065319;28;19984;-91
2021/04/16 02:14:32;;;;;;;;;;;;;;;4.98;80.32;100100.13;5067492;28;19928;-92
2021/04/16 02:16:59;;;;;;;;;;;;;;;5.13;79.53;100101.97;5058557;28;20003;-91
2021/04/16 02:19:25;;;;;;;;;;;;;;;4.97;79.31;100108.66;5066192;28;19921;-92
2021/04/16 02:21:50;;;;;;;;;;;;;;;4.85;79.63;100116.19;5065554;28;19992;-92
2021/04/16 02:24:16;;;;;;;;;;;;;;;4.54;80.63;100121.00;5056095;28;19924;-92
2021/04/16 02:26:41;;;;;;;;;;;;;;;4.63;80.67;100125.34;5067197;28;19959;-91
2021/04/16 02:29:08;;;;;;;;;;;;;;;3.74;84.14;100127.69;5048633;28;19917;-92
2021/04/16 02:31:34;;;;;;;;;;;;;;;3.89;84.26;100126.16;5054556;28;19960;-92
2021/04/16 02:33:59;;;;;;;;;;;;;;;3.93;85.30;100123.69;5055805;28;19924;-92
2021/04/16 02:36:25;;;;;;;;;;;;;;;3.86;86.46;100128.69;5058887;28;19912;-92
2021/04/16 02:41:18;;;;;;;;;;;;;;;4.13;85.08;100113.75;5245652;22;19956;-92
2021/04/16 02:43:43;;;;;;;;;;;;;;;4.02;85.86;100117.84;5054979;28;19909;-91
2021/04/16 02:46:09;;;;;;;;;;;;;;;3.95;85.53;100116.91;5054791;28;19909;-91
2021/04/16 02:48:34;;;;;;;;;;;;;;;3.59;87.23;100114.72;5051637;28;19971;-90
2021/04/16 02:51:00;;;;;;;;;;;;;;;3.92;86.46;100110.91;5037415;28;20371;-92
2021/04/16 02:56:00;;;;;;;;;;;;;;;4.55;84.08;100114.19;5234285;23;19938;-92
2021/04/16 02:58:29;;;;;;;;;;;;;;;4.36;84.33;100116.56;5068228;28;19940;-93
2021/04/16 03:00:55;;;;;;;;;;;;;;;4.43;84.58;100117.47;5059750;28;19924;-92
2021/04/16 03:03:20;;;;;;;;;;;;;;;4.47;84.91;100114.13;5076868;28;19956;-92
2021/04/16 03:05:46;;;;;;;;;;;;;;;3.93;83.87;100115.19;5067100;28;19964;-92
2021/04/16 03:08:11;;;;;;;;;;;;;;;4.22;84.62;100114.66;5044126;28;19940;-92
2021/04/16 03:10:37;;;;;;;;;;;;;;;4.43;84.67;100112.38;5040915;28;19921;-93
2021/04/16 03:13:02;;;;;;;;;;;;;;;4.15;84.76;100106.97;5054692;28;19955;-93
2021/04/16 03:15:28;;;;;;;;;;;;;;;4.08;84.68;100110.28;5059355;28;19916;-93
2021/04/16 03:17:54;;;;;;;;;;;;;;;4.08;84.32;100105.19;5063835;28;19921;-93
2021/04/16 03:20:20;;;;;;;;;;;;;;;4.18;84.90;100101.91;5070363;28;19916;-93
2021/04/16 03:22:46;;;;;;;;;;;;;;;4.40;84.05;100107.22;5073925;28;19920;-92
2021/04/16 03:25:12;;;;;;;;;;;;;;;4.55;84.10;100102.28;5067774;28;19988;-92
2021/04/16 03:27:38;;;;;;;;;;;;;;;4.55;83.95;100101.44;5072396;28;19924;-93
2021/04/16 03:30:08;;;;;;;;;;;;;;;4.58;84.01;100094.69;5068987;28;19920;-93
2021/04/16 03:32:34;;;;;;;;;;;;;;;4.42;85.13;100095.34;5077748;28;19963;-92
2021/04/16 03:35:00;;;;;;;;;;;;;;;4.43;85.29;100097.06;5074528;28;19924;-92
2021/04/16 03:37:25;;;;;;;;;;;;;;;4.29;84.68;100093.50;5058971;28;19932;-91
2021/04/16 03:39:51;;;;;;;;;;;;;;;3.98;85.58;100094.00;5025993;28;20368;-89
2021/04/16 03:42:16;;;;;;;;;;;;;;;3.85;86.33;100097.22;5045533;28;19920;-91
2021/04/16 03:44:41;;;;;;;;;;;;;;;4.07;87.25;100098.38;5035493;28;20265;-91
2021/04/16 03:47:07;;;;;;;;;;;;;;;3.56;86.96;100099.41;5062670;28;19985;-92
2021/04/16 03:49:32;;;;;;;;;;;;;;;3.51;86.63;100099.34;5045820;28;19981;-92
2021/04/16 03:52:00;;;;;;;;;;;;;;;3.40;86.20;100097.47;5037309;28;20368;-91
2021/04/16 03:54:25;;;;;;;;;;;;;;;3.49;85.25;100098.47;5040372;28;20824;-90
2021/04/16 03:56:51;;;;;;;;;;;;;;;3.30;85.09;100102.41;5035952;28;20019;-92
2021/04/16 03:59:17;;;;;;;;;;;;;;;3.29;84.43;100093.06;5045307;28;19966;-91
2021/04/16 04:01:43;;;;;;;;;;;;;;;3.27;84.04;100092.19;5044333;28;19981;-92
2021/04/16 04:04:09;;;;;;;;;;;;;;;3.28;84.12;100101.53;5046407;28;19920;-93
2021/04/16 04:06:34;;;;;;;;;;;;;;;3.58;83.89;100091.78;5054039;28;20948;-88
2021/04/16 04:08:59;;;;;;;;;;;;;;;3.85;82.47;100096.38;5040955;28;19921;-90
2021/04/16 04:11:25;;;;;;;;;;;;;;;3.25;82.67;100093.00;5041400;28;19991;-90
2021/04/16 04:13:50;;;;;;;;;;;;;;;3.07;83.32;100093.56;5039230;28;19920;-89
2021/04/16 04:16:15;;;;;;;;;;;;;;;3.27;83.91;100097.28;5021400;28;20358;-91
2021/04/16 04:18:41;;;;;;;;;;;;;;;3.25;83.62;100087.91;5039621;28;19971;-89
2021/04/16 04:21:06;;;;;;;;;;;;;;;3.71;83.13;100084.31;5039900;28;20015;-91
2021/04/16 04:23:31;;;;;;;;;;;;;;;3.83;81.32;100087.84;5073289;28;19985;-90
2021/04/16 04:25:57;;;;;;;;;;;;;;;3.74;82.19;100086.91;5023086;28;20377;-89
2021/04/16 04:28:22;;;;;;;;;;;;;;;3.81;81.68;100085.31;5027683;28;19946;-88
2021/04/16 04:30:48;;;;;;;;;;;;;;;3.85;81.32;100087.03;5028838;28;19950;-88
2021/04/16 04:33:13;;;;;;;;;;;;;;;3.92;80.61;100093.06;5039187;28;19928;-89
2021/04/16 04:35:39;;;;;;;;;;;;;;;3.74;80.65;100089.47;5036746;28;20537;-89
2021/04/16 04:38:05;;;;;;;;;;;;;;;3.89;80.67;100091.34;5038440;28;20295;-89
2021/04/16 04:40:30;;;;;;;;;;;;;;;3.75;80.60;100095.41;5038053;28;19970;-90
2021/04/16 04:42:55;;;;;;;;;;;;;;;3.60;81.01;100090.97;5029589;28;19921;-90
2021/04/16 04:45:21;;;;;;;;;;;;;;;3.63;79.99;100098.66;5036981;28;19926;-89
2021/04/16 04:47:46;;;;;;;;;;;;;;;3.32;81.77;100100.75;5036217;28;19942;-90
2021/04/16 04:50:12;;;;;;;;;;;;;;;3.09;81.98;100102.09;5037670;28;19920;-89
2021/04/16 04:52:38;;;;;;;;;;;;;;;3.38;83.23;100104.25;5030122;28;20035;-90
2021/04/16 04:55:06;;;;;;;;;;;;;;;2.72;85.91;100107.41;5009689;28;20656;-90
2021/04/16 04:57:31;;;;;;;;;;;;;;;2.58;88.85;100108.00;5014829;28;20273;-90
2021/04/16 04:59:56;;;;;;;;;;;;;;;3.14;87.59;100105.56;5017973;28;19943;-91
2021/04/16 05:02:22;;;;;;;;;;;;;;;2.70;87.97;100103.16;5011793;28;19947;-91
2021/04/16 05:04:48;;;;;;;;;;;;;;;2.56;89.16;100109.69;5013571;28;20391;-89
2021/04/16 05:07:13;;;;;;;;;;;;;;;2.77;90.00;100102.41;5019621;28;19936;-90
2021/04/16 05:09:39;;;;;;;;;;;;;;;2.54;91.57;100103.69;5002868;28;19975;-90
2021/04/16 05:12:04;;;;;;;;;;;;;;;2.36;93.92;100109.31;5020110;28;19932;-90
2021/04/16 05:14:29;;;;;;;;;;;;;;;2.15;96.69;100117.38;5037339;28;19920;-90
2021/04/16 05:16:55;;;;;;;;;;;;;;;2.14;99.14;100118.19;5018764;28;19932;-90
2021/04/16 05:19:22;;;;;;;;;;;;;;;2.18;100.00;100117.41;5019321;28;19921;-91
2021/04/16 05:21:50;;;;;;;;;;;;;;;1.94;100.00;100111.03;5021617;28;20837;-89
2021/04/16 05:24:16;;;;;;;;;;;;;;;1.93;100.00;100116.06;5020207;28;19931;-90
2021/04/16 05:26:41;;;;;;;;;;;;;;;1.98;100.00;100114.47;5023363;28;19925;-90
2021/04/16 05:29:07;;;;;;;;;;;;;;;1.90;100.00;100101.63;5017574;28;19960;-91
2021/04/16 05:31:34;;;;;;;;;;;;;;;1.97;100.00;100108.53;5015798;28;19948;-90
2021/04/16 05:34:01;;;;;;;;;;;;;;;2.11;100.00;100116.44;5018488;28;19988;-89
2021/04/16 05:36:28;;;;;;;;;;;;;;;2.12;100.00;100110.50;5022598;28;19970;-90
2021/04/16 05:38:53;;;;;;;;;;;;;;;2.18;100.00;100109.78;5024668;28;19920;-92
2021/04/16 05:41:19;;;;;;;;;;;;;;;2.32;100.00;100110.91;5023468;28;19980;-93
2021/04/16 05:43:44;;;;;;;;;;;;;;;2.48;100.00;100114.59;5022015;28;19916;-92
2021/04/16 05:46:09;;;;;;;;;;;;;;;2.72;100.00;100104.88;5028843;28;19921;-92
2021/04/16 05:48:35;;;;;;;;;;;;;;;2.74;100.00;100099.81;5056982;28;19921;-92
2021/04/16 05:51:00;;;;;;;;;;;;;;;2.79;100.00;100093.13;5028869;28;20254;-91
2021/04/16 05:53:25;;;;;;;;;;;;;;;2.91;100.00;100089.91;5003090;28;19971;-91
2021/04/16 05:55:51;;;;;;;;;;;;;;;3.29;100.00;100075.25;5025102;28;19964;-91
2021/04/16 05:58:16;;;;;;;;;;;;;;;3.90;100.00;100075.22;5036649;28;20439;-90
2021/04/16 06:00:41;;;;;;;;;;;;;;;3.84;100.00;100076.84;5036460;28;19920;-90
2021/04/16 06:03:08;;;;;;;;;;;;;;;3.94;100.00;100071.00;5023820;28;20396;-91
2021/04/16 06:05:33;;;;;;;;;;;;;;;4.83;96.62;100071.91;5038082;28;19924;-89
2021/04/16 06:07:58;;;;;;;;;;;;;;;5.23;94.91;100069.69;5021143;28;19921;-90
2021/04/16 06:10:24;;;;;;;;;;;;;;;5.39;93.18;100071.50;5030531;28;19951;-89
2021/04/16 06:12:50;;;;;;;;;;;;;;;5.41;91.54;100074.91;5033864;28;20388;-89
2021/04/16 06:15:16;;;;;;;;;;;;;;;4.17;93.16;100074.72;5013768;28;19928;-89
2021/04/16 06:17:42;;;;;;;;;;;;;;;3.58;98.26;100077.38;5024669;28;19968;-89
2021/04/16 06:20:08;;;;;;;;;;;;;;;3.50;100.00;100071.31;5035292;28;20077;-89
2021/04/16 06:22:33;;;;;;;;;;;;;;;3.45;100.00;100083.13;5036424;28;19929;-90
2021/04/16 06:24:59;;;;;;;;;;;;;;;3.20;100.00;100085.31;5025732;28;19920;-88
2021/04/16 06:27:24;;;;;;;;;;;;;;;3.15;100.00;100076.75;5036638;28;20479;-90
2021/04/16 06:29:51;;;;;;;;;;;;;;;3.25;100.00;100078.59;5027591;28;19963;-89
2021/04/16 06:32:17;;;;;;;;;;;;;;;3.06;100.00;100084.25;5030468;28;19928;-88
2021/04/16 06:34:42;;;;;;;;;;;;;;;3.23;100.00;100080.25;5031351;28;20401;-89
2021/04/16 06:37:08;;;;;;;;;;;;;;;3.32;100.00;100074.44;5030166;28;19951;-90
2021/04/16 06:39:34;;;;;;;;;;;;;;;3.54;100.00;100080.72;5057040;28;19924;-90
2021/04/16 06:41:59;;;;;;;;;;;;;;;3.51;100.00;100080.66;5033295;28;19942;-88
2021/04/16 06:44:26;;;;;;;;;;;;;;;3.59;100.00;100079.06;5041060;28;20276;-88
2021/04/16 06:47:18;;;;;;;;;;;;;;;3.55;100.00;100082.41;5021965;28;19921;-88
2021/04/16 06:49:43;;;;;;;;;;;;;;;3.64;100.00;100081.69;5035258;28;19924;-90
2021/04/16 06:52:28;;;;;;;;;;;;;;;3.71;100.00;100083.47;5033091;28;19983;-90
2021/04/16 06:55:04;;;;;;;;;;;;;;;3.93;100.00;100085.47;5059083;28;20609;-90
2021/04/16 06:57:40;;;;;;;;;;;;;;;3.95;100.00;100088.88;5044728;28;19924;-91
2021/04/16 07:00:12;;;;;;;;;;;;;;;3.95;100.00;100088.88;5049769;28;19920;-91
2021/04/16 07:02:41;;;;;;;;;;;;;;;4.00;100.00;100095.75;5055242;28;19925;-92
2021/04/16 07:05:27;;;;;;;;;;;;;;;4.10;100.00;100090.75;5079697;28;19917;-91
2021/04/16 07:07:53;;;;;;;;;;;;;;;4.27;100.00;100096.06;5086442;28;19927;-92
2021/04/16 07:10:20;;;;;;;;;;;;;;;4.13;100.00;100095.91;5065815;28;19920;-90
2021/04/16 07:12:45;;;;;;;;;;;;;;;4.48;100.00;100100.53;5046341;28;20414;-94
2021/04/16 07:15:16;;;;;;;;;;;;;;;4.50;100.00;100106.50;5060643;28;19920;-92
2021/04/16 07:17:43;;;;;;;;;;;;;;;3.83;100.00;100106.56;5043496;28;20583;-93
2021/04/16 07:20:09;;;;;;;;;;;;;;;4.00;100.00;100098.28;5038896;28;19921;-90
2021/04/16 07:22:47;;;;;;;;;;;;;;;4.17;100.00;100099.31;5037500;28;19920;-89
2021/04/16 07:25:23;;;;;;;;;;;;;;;4.15;100.00;100103.53;5057749;28;20464;-90
2021/04/16 07:27:49;;;;;;;;;;;;;;;4.42;100.00;100110.66;5058064;28;19966;-89
2021/04/16 07:30:40;;;;;;;;;;;;;;;5.00;100.00;100106.13;5034800;28;19925;-90
2021/04/16 07:33:24;;;;;;;;;;;;;;;5.60;97.63;100109.09;5032461;28;20392;-89
2021/04/16 07:35:50;;;;;;;;;;;;;;;4.87;97.94;100109.41;5043385;28;20024;-87
2021/04/16 07:38:28;;;;;;;;;;;;;;;4.72;97.13;100114.34;5034304;28;19917;-88
2021/04/16 07:41:13;;;;;;;;;;;;;;;4.95;94.92;100107.78;5031418;28;19927;-89
2021/04/16 07:43:48;;;;;;;;;;;;;;;5.55;96.40;100105.66;5039405;28;20384;-88
2021/04/16 07:46:21;;;;;;;;;;;;;;;5.43;94.21;100105.59;5038001;28;19928;-88
2021/04/16 07:48:46;;;;;;;;;;;;;;;5.02;92.86;100112.09;5019669;28;19921;-88
2021/04/16 07:51:12;;;;;;;;;;;;;;;5.05;92.96;100107.84;5021858;28;19939;-88
2021/04/16 07:53:42;;;;;;;;;;;;;;;5.11;92.78;100118.09;5037038;28;19927;-89
2021/04/16 07:56:12;;;;;;;;;;;;;;;5.27;91.73;100112.28;5035713;28;20058;-87
2021/04/16 07:58:38;;;;;;;;;;;;;;;6.61;90.43;100102.69;5036004;28;19981;-88
2021/04/16 08:01:11;;;;;;;;;;;;;;;6.32;89.13;100117.97;5027004;28;19932;-88
2021/04/16 08:03:42;;;;;;;;;;;;;;;6.89;84.94;100095.91;5038154;28;20562;-88
2021/04/16 08:06:23;;;;;;;;;;;;;;;7.22;83.76;100104.44;5032257;28;19931;-89
2021/04/16 08:08:48;;;;;;;;;;;;;;;6.01;83.45;100105.06;5029536;28;19924;-89
2021/04/16 08:11:19;;;;;;;;;;;;;;;6.57;82.49;100101.84;5020855;28;19924;-87
2021/04/16 08:13:45;;;;;;;;;;;;;;;6.31;83.22;100098.38;5026421;28;20339;-89
2021/04/16 08:16:18;;;;;;;;;;;;;;;6.31;84.54;100106.03;5037250;28;19947;-89
2021/04/16 08:18:44;;;;;;;;;;;;;;;6.08;88.07;100099.13;5029468;28;19924;-88
2021/04/16 08:21:14;;;;;;;;;;;;;;;5.94;84.99;100105.88;5030178;28;20046;-88
2021/04/16 08:23:45;;;;;;;;;;;;;;;5.66;85.58;100108.28;5037043;28;20443;-87
2021/04/16 08:26:10;;;;;;;;;;;;;;;5.64;87.16;100109.97;5012936;28;19932;-87
2021/04/16 08:28:57;;;;;;;;;;;;;;;5.63;85.50;100100.59;5037341;28;19928;-88
2021/04/16 08:31:26;;;;;;;;;;;;;;;6.27;85.89;100105.16;5036295;28;19931;-88
2021/04/16 08:34:09;;;;;;;;;;;;;;;6.43;86.57;100100.94;5019933;28;20082;-88
2021/04/16 08:36:34;;;;;;;;;;;;;;;6.76;84.12;100105.28;5035205;28;19970;-89
2021/04/16 08:39:18;;;;;;;;;;;;;;;6.17;84.13;100111.97;5037355;28;20218;-88
2021/04/16 08:41:47;;;;;;;;;;;;;;;6.00;84.26;100104.22;5028014;28;19974;-88
2021/04/16 08:44:13;;;;;;;;;;;;;;;6.16;83.36;100106.81;5034656;28;19924;-89
2021/04/16 08:46:43;;;;;;;;;;;;;;;6.58;83.22;100103.53;5023652;28;20281;-88
2021/04/16 08:49:11;;;;;;;;;;;;;;;7.01;81.86;100098.47;5018176;28;20766;-87
2021/04/16 08:51:37;;;;;;;;;;;;;;;6.51;83.86;100101.81;5036891;28;19974;-88
2021/04/16 08:54:05;;;;;;;;;;;;;;;6.58;81.87;100098.44;5020574;28;20384;-88
2021/04/16 08:56:32;;;;;;;;;;;;;;;7.26;80.08;100093.34;5020964;28;20674;-88
2021/04/16 08:58:58;;;;;;;;;;;;;;;7.61;75.65;100095.84;5035717;28;19928;-88
2021/04/16 09:01:28;;;;;;;;;;;;;;;7.39;70.41;100089.91;5022372;28;19935;-88
2021/04/16 09:03:54;;;;;;;;;;;;;;;7.56;67.65;100096.72;5017371;28;19925;-88
2021/04/16 09:06:25;;;;;;;;;;;;;;;6.97;64.40;100095.91;5027158;28;19925;-88
2021/04/16 09:08:51;;;;;;;;;;;;;;;6.62;65.98;100095.03;5016281;28;19999;-87
2021/04/16 09:11:45;;;;;;;;;;;;;;;7.43;62.14;100091.59;5029763;28;20003;-87
2021/04/16 09:14:20;;;;;;;;;;;;;;;8.07;65.79;100094.84;5009674;28;19979;-89
2021/04/16 09:16:53;;;;;;;;;;;;;;;7.79;63.93;100094.09;5033059;28;19924;-88
2021/04/16 09:19:24;;;;;;;;;;;;;;;8.06;58.29;100090.56;5031748;28;19920;-89
2021/04/16 09:22:41;;;;;;;;;;;;;;;;;;;;;
2021/04/16 09:25:27;;;;;;;;;;;;;;;7.67;61.04;100089.84;4992026;28;19926;-88
2021/04/16 09:27:52;;;;;;;;;;;;;;;7.87;60.87;100090.66;5001313;28;19928;-87
2021/04/16 09:30:17;;;;;;;;;;;;;;;7.61;62.23;100080.44;5034303;28;19927;-88
2021/04/16 09:32:51;;;;;;;;;;;;;;;7.82;60.49;100088.94;5035440;28;20441;-89
2021/04/16 09:35:20;;;;;;;;;;;;;;;8.01;60.41;100092.31;5030253;28;19928;-89
2021/04/16 09:43:28;;;;;;;;;;;;;;;7.08;61.34;100095.06;4170290;22;20016;-87
2021/04/16 10:00:02;;;;;;;;;;;;;;;;;;;;;
2021/04/16 10:02:41;;;;;;;;;;;;;;;8.97;59.85;100080.63;5024463;28;19929;-89
2021/04/16 10:05:07;;;;;;;;;;;;;;;8.10;58.80;100082.84;5040673;28;19921;-90
2021/04/16 10:07:52;;;;;;;;;;;;;;;8.45;59.24;100091.25;5061429;28;19971;-93
2021/04/16 10:10:22;;;;;;;;;;;;;;;8.43;63.15;100085.28;5041827;28;19925;-96
2021/04/16 10:12:50;;;;;;;;;;;;;;;8.17;58.67;100081.13;5051091;28;19928;-94
2021/04/16 10:15:24;;;;;;;;;;;;;;;8.20;60.48;100080.25;5025923;28;19921;-94
2021/04/16 10:17:53;;;;;;;;;;;;;;;8.33;60.02;100076.75;5033830;28;19923;-93
2021/04/16 10:20:21;;;;;;;;;;;;;;;8.96;61.24;100069.50;5052515;28;19929;-94
2021/04/16 10:22:59;;;;;;;;;;;;;;;8.07;57.90;100069.19;5045973;28;19929;-93
2021/04/16 11:11:57;;;;;;;;;;;;;;;10.44;53.62;100022.34;5070197;28;19935;-95
2021/04/16 12:38:15;;;;;;;;;;;;;;;11.85;48.24;99967.34;5054714;28;20382;-95
2021/04/16 12:40:43;;;;;;;;;;;;;;;14.70;41.50;99952.69;5027590;28;19923;-95
2021/04/16 12:43:08;;;;;;;;;;;;;;;12.68;44.85;99962.88;5037751;28;19909;-94
2021/04/16 12:45:36;;;;;;;;;;;;;;;13.32;47.40;99957.78;5052949;28;19915;-95
2021/04/16 12:48:08;;;;;;;;;;;;;;;12.78;46.14;99950.56;5052768;28;19925;-96
2021/04/16 12:50:34;;;;;;;;;;;;;;;11.07;47.52;99951.75;5021217;28;19988;-95
2021/04/16 12:53:01;;;;;;;;;;;;;;;10.84;48.05;99959.06;5031674;28;19955;-93
2021/04/16 12:55:30;;;;;;;;;;;;;;;10.69;49.05;99955.00;5034135;28;19928;-95
2021/04/16 13:00:34;;;;;;;;;;;;;;;12.43;49.46;99949.72;5239744;23;19925;-95
2021/04/16 13:03:28;;;;;;;;;;;;;;;12.06;42.56;99953.16;5057518;28;19939;-93
2021/04/16 13:05:54;;;;;;;;;;;;;;;12.16;46.08;99947.78;5048620;28;19920;-93
2021/04/16 13:08:19;;;;;;;;;;;;;;;12.49;43.08;99936.63;5056959;28;20409;-92
2021/04/16 13:10:46;;;;;;;;;;;;;;;12.41;42.07;99948.91;5059313;28;19921;-94
2021/04/16 13:13:12;;;;;;;;;;;;;;;12.43;42.76;99934.22;5054732;28;19919;-92
2021/04/16 13:15:39;;;;;;;;;;;;;;;12.17;43.62;99942.59;5076722;28;19951;-94
2021/04/16 13:18:06;;;;;;;;;;;;;;;11.43;42.99;99945.91;5061262;28;19925;-93
2021/04/16 13:20:36;;;;;;;;;;;;;;;10.87;44.21;99946.94;5052476;28;20055;-93
2021/04/16 13:23:01;;;;;;;;;;;;;;;11.37;42.01;99933.13;5050180;28;19942;-93
2021/04/16 14:12:27;;;;;;;;;;;;;;;12.63;42.63;99905.28;5095497;28;19967;-94
2021/04/16 14:18:22;;;;;;;;;;;;;;;12.85;40.96;99900.41;5115364;22;19924;-94
2021/04/16 14:24:25;;;;;;;;;;;;;;;13.91;40.02;99893.91;5061740;28;19916;-94
2021/04/16 14:27:15;;;;;;;;;;;;;;;13.02;39.91;99897.34;5139949;22;19993;-93
2021/04/16 14:29:41;;;;;;;;;;;;;;;13.75;40.46;99884.06;5075333;28;19964;-94
2021/04/16 14:32:12;;;;;;;;;;;;;;;14.41;41.24;99889.69;5082952;28;19931;-92
2021/04/16 14:34:41;;;;;;;;;;;;;;;13.66;39.36;99884.34;5072864;28;19916;-95
2021/04/16 14:37:16;;;;;;;;;;;;;;;14.06;37.02;99877.91;5063990;28;19930;-92
2021/04/16 14:39:45;;;;;;;;;;;;;;;12.61;39.61;99877.78;5087677;28;19968;-95
2021/04/16 14:42:18;;;;;;;;;;;;;;;12.62;38.10;99877.75;5068948;28;19992;-95
2021/04/16 14:44:44;;;;;;;;;;;;;;;13.61;39.64;99865.50;5067369;28;19919;-96
2021/04/16 14:47:34;;;;;;;;;;;;;;;13.59;36.09;99870.72;5073564;28;19928;-95
2021/04/16 14:50:04;;;;;;;;;;;;;;;12.95;39.92;99865.66;5070887;28;19921;-94
2021/04/16 14:52:50;;;;;;;;;;;;;;;14.14;37.02;99860.38;5067761;28;19920;-93
2021/04/16 14:55:22;;;;;;;;;;;;;;;12.86;37.98;99857.28;5075299;28;19935;-95
2021/04/16 14:57:50;;;;;;;;;;;;;;;13.25;40.83;99865.69;5078530;28;19927;-93
2021/04/16 15:00:20;;;;;;;;;;;;;;;12.85;36.68;99861.63;5075534;28;19920;-93
2021/04/16 15:02:55;;;;;;;;;;;;;;;13.30;40.87;99861.25;5076625;28;19928;-93
2021/04/16 15:05:22;;;;;;;;;;;;;;;12.24;39.18;99870.97;5060071;28;20365;-93
2021/04/16 15:07:58;;;;;;;;;;;;;;;13.15;41.76;99865.06;5080976;28;19972;-94
2021/04/16 15:10:27;;;;;;;;;;;;;;;13.44;41.79;99862.59;5085988;28;19921;-93
2021/04/16 15:12:55;;;;;;;;;;;;;;;12.66;38.98;99868.19;5052607;28;19928;-93
2021/04/16 15:15:27;;;;;;;;;;;;;;;12.70;41.46;99859.44;5077455;28;19943;-93
2021/04/16 15:20:46;;;;;;;;;;;;;;;12.69;41.28;99862.94;5076116;28;19932;-93
2021/04/16 15:23:16;;;;;;;;;;;;;;;12.19;40.90;99867.66;5083584;28;19920;-94
2021/04/16 15:25:51;;;;;;;;;;;;;;;12.54;37.17;99866.75;5069216;28;19921;-94
2021/04/16 15:28:36;;;;;;;;;;;;;;;13.00;38.40;99867.25;5080592;28;20062;-93
2021/04/16 15:31:35;;;;;;;;;;;;;;;13.42;38.60;99854.00;5064438;28;20258;-93
2021/04/16 15:47:49;;;;;;;;;;;;;;;12.91;37.32;99853.72;5065850;28;19927;-92
2021/04/16 15:50:17;;;;;;;;;;;;;;;13.34;41.17;99847.34;5032720;28;19916;-93
2021/04/16 15:52:46;;;;;;;;;;;;;;;13.39;47.09;99848.03;5046033;28;20299;-93
2021/04/16 15:55:11;;;;;;;;;;;;;;;13.85;36.98;99843.19;5063444;28;19917;-95
2021/04/16 15:57:42;;;;;;;;;;;;;;;12.59;39.65;99856.31;5073112;28;19922;-93
2021/04/16 16:00:11;;;;;;;;;;;;;;;12.65;37.44;99849.22;5051711;28;19919;-94
2021/04/16 16:02:37;;;;;;;;;;;;;;;12.43;39.80;99850.69;5068903;28;19920;-93
2021/04/16 16:05:02;;;;;;;;;;;;;;;12.53;36.63;99855.59;5059961;28;19921;-92
2021/04/16 16:07:28;;;;;;;;;;;;;;;13.21;38.97;99845.97;5079368;28;20460;-90
2021/04/16 16:09:53;;;;;;;;;;;;;;;13.02;38.55;99847.38;5034638;28;19924;-92
2021/04/16 16:12:21;;;;;;;;;;;;;;;12.23;37.88;99853.81;5065496;28;19927;-92
2021/04/16 16:14:47;;;;;;;;;;;;;;;12.35;38.01;99850.91;5068611;28;19924;-91
2021/04/16 16:17:13;;;;;;;;;;;;;;;12.70;41.67;99849.09;5055209;28;19920;-92
2021/04/16 16:19:39;;;;;;;;;;;;;;;12.80;39.02;99840.22;5069556;28;19933;-92
2021/04/16 16:22:04;;;;;;;;;;;;;;;12.39;39.67;99843.94;5047384;28;19928;-92
2021/04/16 16:24:30;;;;;;;;;;;;;;;12.29;39.57;99843.28;5063841;28;19942;-93
2021/04/16 16:26:58;;;;;;;;;;;;;;;12.16;39.47;99849.66;5050528;28;19935;-94
2021/04/16 16:29:25;;;;;;;;;;;;;;;12.33;39.61;99853.50;5067048;28;19925;-91
2021/04/16 16:31:52;;;;;;;;;;;;;;;11.92;40.21;99850.22;5050932;28;19921;-92
2021/04/16 16:34:18;;;;;;;;;;;;;;;11.83;41.95;99850.41;5077204;28;19927;-93
2021/04/16 16:37:15;;;;;;;;;;;;;;;11.51;40.31;99858.88;5086491;28;19924;-92
2021/04/16 16:39:45;;;;;;;;;;;;;;;11.69;42.05;99858.47;5028233;28;20336;-92
2021/04/16 16:42:39;;;;;;;;;;;;;;;11.85;41.96;99853.78;5150233;23;19925;-94
2021/04/16 16:45:07;;;;;;;;;;;;;;;11.81;42.92;99847.00;5065176;28;19940;-94
2021/04/16 16:47:32;;;;;;;;;;;;;;;12.37;42.07;99854.28;5080316;28;19932;-93